createdAt,value
2019-01-16T00:02:36.456Z,99343.16
2019-01-16T00:05:06.393Z,99347.86
2019-01-16T00:07:33.856Z,99333.96
2019-01-16T00:10:06.825Z,99338.00
2019-01-16T00:12:34.758Z,99330.22
2019-01-16T00:15:10.355Z,99333.69
2019-01-16T00:17:40.676Z,99331.43
2019-01-16T00:20:25.774Z,99329.15
2019-01-16T00:23:03.265Z,99323.19
2019-01-16T00:25:32.491Z,99330.13
2019-01-16T00:28:01.405Z,99316.00
2019-01-16T00:30:34.706Z,99320.50
2019-01-16T00:33:16.902Z,99324.08
2019-01-16T00:35:46.155Z,99309.69
2019-01-16T00:38:30.276Z,99305.14
2019-01-16T00:41:02.529Z,99296.28
2019-01-16T00:43:48.698Z,99300.39
2019-01-16T00:46:35.131Z,99306.60
2019-01-16T00:49:03.660Z,99299.92
2019-01-16T00:54:52.105Z,99286.97
2019-01-16T00:57:36.825Z,99289.67
2019-01-16T01:00:25.792Z,99294.02
2019-01-16T01:02:58.686Z,99282.37
2019-01-16T01:05:32.140Z,99290.56
2019-01-16T01:08:01.387Z,99289.06
2019-01-16T01:10:34.397Z,99290.06
2019-01-16T01:13:17.521Z,99300.02
2019-01-16T01:16:01.682Z,99291.86
2019-01-16T01:18:46.945Z,99287.61
2019-01-16T01:21:24.875Z,99287.66
2019-01-16T01:24:09.113Z,99290.78
2019-01-16T01:26:39.995Z,99276.11
2019-01-16T01:29:07.464Z,99265.53
2019-01-16T01:31:34.905Z,99277.80
2019-01-16T01:34:04.636Z,99272.67
2019-01-16T01:36:32.130Z,99276.02
2019-01-16T01:39:16.204Z,99273.25
2019-01-16T01:41:49.306Z,99282.23
2019-01-16T01:44:16.733Z,99285.20
2019-01-16T01:46:49.710Z,99284.83
2019-01-16T01:49:23.429Z,99290.39
2019-01-16T01:52:07.749Z,99284.05
2019-01-16T01:54:51.911Z,99283.74
2019-01-16T01:57:22.750Z,99281.40
2019-01-16T01:59:52.051Z,99288.52
2019-01-16T02:02:22.001Z,99282.56
2019-01-16T02:04:49.458Z,99275.09
2019-01-16T02:07:19.826Z,99282.03
2019-01-16T02:09:48.079Z,99284.01
2019-01-16T02:12:18.894Z,99272.95
2019-01-16T02:15:01.261Z,99272.75
2019-01-16T02:17:34.225Z,99275.73
2019-01-16T02:20:07.490Z,99274.22
2019-01-16T02:22:36.297Z,99268.55
2019-01-16T02:25:06.172Z,99265.91
2019-01-16T02:27:35.034Z,99262.91
2019-01-16T02:30:06.962Z,99259.63
2019-01-16T02:32:34.951Z,99265.62
2019-01-16T02:35:05.365Z,99263.80
2019-01-16T02:37:33.373Z,99263.42
2019-01-16T02:40:01.511Z,99260.86
2019-01-16T02:42:32.400Z,99265.98
2019-01-16T02:45:04.192Z,99260.04
2019-01-16T02:47:40.077Z,99251.20
2019-01-16T02:50:08.218Z,99254.84
2019-01-16T02:52:38.173Z,99255.27
2019-01-16T02:55:08.394Z,99254.39
2019-01-16T02:57:50.720Z,99249.80
2019-01-16T03:00:19.581Z,99254.41
2019-01-16T03:02:49.999Z,99245.09
2019-01-16T03:05:22.849Z,99245.59
2019-01-16T03:08:09.180Z,99248.23
2019-01-16T03:10:51.563Z,99244.27
2019-01-16T03:13:20.508Z,99236.80
2019-01-16T03:15:48.043Z,99227.11
2019-01-16T03:18:20.963Z,99226.48
2019-01-16T03:20:58.331Z,99220.38
2019-01-16T03:23:39.416Z,99220.53
2019-01-16T03:26:10.284Z,99219.01
2019-01-16T03:28:39.955Z,99212.09
2019-01-16T03:31:23.110Z,99218.91
2019-01-16T03:34:01.401Z,99206.69
2019-01-16T03:36:35.363Z,99210.64
2019-01-16T03:39:17.685Z,99201.05
2019-01-16T03:41:50.582Z,99206.77
2019-01-16T03:44:18.809Z,99193.72
2019-01-16T03:46:47.747Z,99198.91
2019-01-16T03:49:18.639Z,99199.53
2019-01-16T03:52:00.975Z,99200.80
2019-01-16T03:54:28.415Z,99200.85
2019-01-16T03:57:01.664Z,99195.40
2019-01-16T03:59:34.704Z,99185.27
2019-01-16T04:02:07.746Z,99187.25
2019-01-16T04:04:39.707Z,99185.28
2019-01-16T04:07:11.665Z,99178.63
2019-01-16T04:09:44.073Z,99175.09
2019-01-16T04:12:12.403Z,99177.95
2019-01-16T04:14:45.537Z,99172.77
2019-01-16T04:17:14.770Z,99167.12
2019-01-16T04:19:57.906Z,99166.67
2019-01-16T04:22:31.012Z,99164.72
2019-01-16T04:24:58.872Z,99151.91
2019-01-16T04:27:26.315Z,99153.70
2019-01-16T04:29:59.304Z,99150.25
2019-01-16T04:32:42.445Z,99144.48
2019-01-16T04:35:27.714Z,99136.09
2019-01-16T04:37:59.544Z,99133.31
2019-01-16T04:40:32.725Z,99123.74
2019-01-16T04:43:00.160Z,99131.22
2019-01-16T04:45:46.335Z,99115.92
2019-01-16T04:48:31.457Z,99113.84
2019-01-16T04:51:16.752Z,99111.59
2019-01-16T04:54:03.000Z,99110.30
2019-01-16T04:56:45.351Z,99113.49
2019-01-16T04:59:16.159Z,99119.07
2019-01-16T05:01:48.519Z,99110.97
2019-01-16T05:04:30.739Z,99106.31
2019-01-16T05:07:13.107Z,99096.94
2019-01-16T05:09:45.224Z,99097.91
2019-01-16T05:12:12.686Z,99098.12
2019-01-16T05:14:42.071Z,99091.67
2019-01-16T05:17:10.212Z,99091.64
2019-01-16T05:19:46.211Z,99095.19
2019-01-16T05:22:18.067Z,99091.02
2019-01-16T05:24:45.599Z,99094.06
2019-01-16T05:27:18.718Z,99084.70
2019-01-16T05:29:48.645Z,99083.39
2019-01-16T05:32:17.588Z,99078.97
2019-01-16T05:34:47.121Z,99075.59
2019-01-16T05:37:16.435Z,99080.23
2019-01-16T05:39:49.452Z,99070.20
2019-01-16T05:42:22.458Z,99074.80
2019-01-16T05:44:56.562Z,99071.95
2019-01-16T05:47:29.985Z,99066.77
2019-01-16T05:49:58.838Z,99075.45
2019-01-16T05:52:31.857Z,99066.02
2019-01-16T05:55:19.978Z,99057.12
2019-01-16T05:57:53.001Z,99040.17
2019-01-16T06:00:32.273Z,99048.10
2019-01-16T06:03:19.400Z,99041.47
2019-01-16T06:05:46.916Z,99041.44
2019-01-16T06:08:18.095Z,99034.78
2019-01-16T06:10:51.670Z,99039.23
2019-01-16T06:13:24.012Z,99038.58
2019-01-16T06:15:58.018Z,99039.75
2019-01-16T06:18:27.163Z,99050.11
2019-01-16T06:21:00.090Z,99045.81
2019-01-16T06:23:44.107Z,99043.86
2019-01-16T06:26:11.589Z,99042.67
2019-01-16T06:28:41.849Z,99038.44
2019-01-16T06:31:10.019Z,99050.63
2019-01-16T06:33:42.885Z,99046.95
2019-01-16T06:36:15.877Z,99049.80
2019-01-16T06:38:49.080Z,99046.67
2019-01-16T06:41:29.381Z,99045.89
2019-01-16T06:44:02.399Z,99026.55
2019-01-16T06:46:38.290Z,99032.23
2019-01-16T06:49:05.703Z,99030.95
2019-01-16T06:51:36.921Z,99032.95
2019-01-16T06:54:20.150Z,99032.69
2019-01-16T06:57:02.436Z,99027.58
2019-01-16T06:59:46.745Z,99033.76
2019-01-16T07:02:19.607Z,99036.50
2019-01-16T07:05:04.062Z,99028.47
2019-01-16T07:07:48.312Z,99045.05
2019-01-16T07:10:31.406Z,99029.11
2019-01-16T07:13:19.556Z,99009.76
2019-01-16T07:15:52.479Z,99017.97
2019-01-16T07:18:35.760Z,99025.48
2019-01-16T07:21:23.864Z,99015.88
2019-01-16T07:23:51.643Z,99011.81
2019-01-16T07:26:19.147Z,99013.17
2019-01-16T07:29:02.261Z,99016.86
2019-01-16T07:31:30.637Z,99008.58
2019-01-16T07:34:19.018Z,99004.58
2019-01-16T07:36:56.709Z,99009.97
2019-01-16T07:39:26.071Z,99005.97
2019-01-16T07:42:08.443Z,99019.05
2019-01-16T07:44:50.749Z,99017.91
2019-01-16T07:47:18.540Z,99011.84
2019-01-16T07:49:49.205Z,99002.39
2019-01-16T07:52:18.773Z,99006.86
2019-01-16T07:54:52.339Z,99008.41
2019-01-16T07:57:22.694Z,99010.48
2019-01-16T08:00:00.034Z,99016.38
2019-01-16T08:02:30.793Z,99014.55
2019-01-16T08:05:11.061Z,99016.50
2019-01-16T08:07:39.955Z,99010.77
2019-01-16T08:10:10.955Z,99009.91
2019-01-16T08:12:41.897Z,99019.51
2019-01-16T08:15:20.095Z,99025.73
2019-01-16T08:18:07.198Z,99019.25
2019-01-16T08:20:40.138Z,99017.94
2019-01-16T08:23:10.013Z,99008.66
2019-01-16T08:25:42.941Z,99013.49
2019-01-16T08:28:10.393Z,99016.66
2019-01-16T08:30:56.687Z,99026.86
2019-01-16T08:33:44.761Z,99024.84
2019-01-16T08:36:17.654Z,99026.74
2019-01-16T08:39:01.739Z,99023.73
2019-01-16T08:41:29.726Z,99042.45
2019-01-16T08:44:02.934Z,99030.06
2019-01-16T08:46:31.748Z,99026.41
2019-01-16T08:49:05.543Z,99029.20
2019-01-16T08:51:33.497Z,99021.83
2019-01-16T08:54:15.794Z,99023.04
2019-01-16T08:56:44.157Z,99011.84
2019-01-16T08:59:14.067Z,99017.63
2019-01-16T09:01:42.271Z,99003.38
2019-01-16T09:04:15.373Z,99002.58
2019-01-16T09:06:48.295Z,99003.33
2019-01-16T09:09:30.611Z,99011.92
2019-01-16T09:12:16.772Z,99018.25
2019-01-16T09:15:00.092Z,99003.02
2019-01-16T09:17:27.514Z,98999.95
2019-01-16T09:19:56.288Z,99001.27
2019-01-16T09:22:35.257Z,98993.31
2019-01-16T09:25:04.456Z,98988.23
2019-01-16T09:27:46.823Z,98994.47
2019-01-16T09:30:29.156Z,98986.66
2019-01-16T09:33:00.147Z,98994.73
2019-01-16T09:35:32.732Z,98993.98
2019-01-16T09:38:17.956Z,98981.11
2019-01-16T09:40:48.151Z,98973.36
2019-01-16T09:43:30.967Z,98979.00
2019-01-16T09:45:59.899Z,98972.88
2019-01-16T09:48:34.821Z,98964.00
2019-01-16T09:51:03.680Z,98966.55
2019-01-16T09:53:47.878Z,98967.86
2019-01-16T09:56:30.238Z,98970.48
2019-01-16T09:59:03.512Z,98954.95
2019-01-16T10:01:31.719Z,98956.80
2019-01-16T10:04:10.919Z,98951.37
2019-01-16T10:06:41.193Z,98944.31
2019-01-16T10:09:26.322Z,98948.05
2019-01-16T10:11:55.646Z,98951.98
2019-01-16T10:14:43.063Z,98957.32
2019-01-16T10:17:14.357Z,98946.73
2019-01-16T10:19:45.315Z,98947.33
2019-01-16T10:22:18.462Z,98941.76
2019-01-16T10:25:00.808Z,98946.44
2019-01-16T10:27:42.091Z,98944.05
2019-01-16T10:30:22.914Z,98944.95
2019-01-16T10:32:54.237Z,98932.35
2019-01-16T10:35:24.637Z,98941.50
2019-01-16T10:37:57.576Z,98913.91
2019-01-16T10:40:30.715Z,98923.59
2019-01-16T10:43:13.946Z,98932.91
2019-01-16T10:45:43.903Z,98939.72
2019-01-16T10:48:26.207Z,98925.12
2019-01-16T10:50:54.098Z,98911.25
2019-01-16T10:53:23.510Z,98915.41
2019-01-16T10:55:52.852Z,98910.52
2019-01-16T10:58:22.772Z,98913.86
2019-01-16T11:00:50.245Z,98903.83
2019-01-16T11:03:21.441Z,98897.98
2019-01-16T11:05:54.521Z,98900.19
2019-01-16T11:08:27.560Z,98894.94
2019-01-16T11:10:54.975Z,98885.84
2019-01-16T11:13:37.620Z,98883.25
2019-01-16T11:16:05.036Z,98877.75
2019-01-16T11:18:32.509Z,98868.88
2019-01-16T11:21:02.446Z,98873.77
2019-01-16T11:23:32.342Z,98870.30
2019-01-16T11:26:08.320Z,98873.24
2019-01-16T11:28:50.631Z,98860.83
2019-01-16T11:31:19.726Z,98854.80
2019-01-16T11:34:03.943Z,98857.40
2019-01-16T11:36:32.345Z,98845.11
2019-01-16T11:39:01.685Z,98843.11
2019-01-16T11:41:31.600Z,98839.47
2019-01-16T11:44:05.000Z,98835.80
2019-01-16T11:46:32.768Z,98823.59
2019-01-16T11:49:10.136Z,98823.96
2019-01-16T11:51:51.395Z,98821.52
2019-01-16T11:54:19.918Z,98818.12
2019-01-16T11:56:58.205Z,98806.10
2019-01-16T11:59:27.018Z,98808.87
2019-01-16T12:01:54.456Z,98793.41
2019-01-16T12:04:21.921Z,98794.88
2019-01-16T12:06:49.395Z,98794.61
2019-01-16T12:09:34.456Z,98792.72
2019-01-16T12:12:18.549Z,98797.92
2019-01-16T12:14:47.790Z,98788.72
2019-01-16T12:17:15.253Z,98805.37
2019-01-16T12:19:45.112Z,98797.83
2019-01-16T12:22:27.450Z,98784.95
2019-01-16T12:25:11.589Z,98794.08
2019-01-16T12:27:42.243Z,98783.03
2019-01-16T12:30:16.024Z,98788.03
2019-01-16T12:32:58.376Z,98774.98
2019-01-16T12:35:42.497Z,98774.20
2019-01-16T12:38:13.810Z,98768.06
2019-01-16T12:40:41.250Z,98760.25
2019-01-16T12:43:14.275Z,98750.33
2019-01-16T12:45:57.555Z,98750.89
2019-01-16T12:48:25.024Z,98746.38
2019-01-16T12:50:57.919Z,98742.79
2019-01-16T12:53:40.257Z,98745.04
2019-01-16T12:56:07.734Z,98734.03
2019-01-16T12:58:42.813Z,98730.45
2019-01-16T13:01:11.857Z,98714.41
2019-01-16T13:03:54.217Z,98704.53
2019-01-16T13:06:27.197Z,98696.63
2019-01-16T13:08:55.483Z,98697.87
2019-01-16T13:11:39.672Z,98676.27
2019-01-16T13:14:08.024Z,98680.26
2019-01-16T13:16:40.359Z,98681.14
2019-01-16T13:19:09.653Z,98678.08
2019-01-16T13:21:52.989Z,98677.66
2019-01-16T13:24:37.023Z,98676.77
2019-01-16T13:27:10.126Z,98667.37
2019-01-16T13:29:39.498Z,98662.13
2019-01-16T13:32:08.802Z,98658.81
2019-01-16T13:34:36.704Z,98654.23
2019-01-16T13:37:20.295Z,98646.99
2019-01-16T13:39:49.629Z,98648.38
2019-01-16T13:42:35.916Z,98640.96
2019-01-16T13:45:05.281Z,98628.88
2019-01-16T13:47:37.529Z,98633.64
2019-01-16T13:50:08.329Z,98632.42
2019-01-16T13:52:42.292Z,98634.20
2019-01-16T13:55:21.475Z,98623.44
2019-01-16T13:57:49.318Z,98616.05
2019-01-16T14:00:17.226Z,98620.23
2019-01-16T14:02:45.023Z,98619.42
2019-01-16T14:05:18.884Z,98605.91
2019-01-16T14:07:51.158Z,98596.37
2019-01-16T14:10:18.593Z,98597.77
2019-01-16T14:13:03.628Z,98594.00
2019-01-16T14:15:44.969Z,98589.02
2019-01-16T14:18:13.808Z,98580.14
2019-01-16T14:20:49.609Z,98586.14
2019-01-16T14:23:31.939Z,98578.39
2019-01-16T14:26:18.223Z,98573.09
2019-01-16T14:28:48.032Z,98575.91
2019-01-16T14:31:15.775Z,98557.05
2019-01-16T14:33:48.859Z,98555.48
2019-01-16T14:36:31.924Z,98548.80
2019-01-16T14:39:15.138Z,98541.88
2019-01-16T14:41:54.255Z,98541.50
2019-01-16T14:44:23.137Z,98544.95
2019-01-16T14:46:54.111Z,98545.00
2019-01-16T14:49:23.389Z,98539.91
2019-01-16T14:52:06.634Z,98530.14
2019-01-16T14:54:34.983Z,98530.16
2019-01-16T14:57:06.310Z,98528.68
2019-01-16T14:59:39.454Z,98521.73
2019-01-16T15:02:09.843Z,98523.77
2019-01-16T15:04:38.045Z,98527.88
2019-01-16T15:07:07.903Z,98523.33
2019-01-16T15:09:35.593Z,98514.02
2019-01-16T15:12:07.003Z,98518.01
2019-01-16T15:14:35.970Z,98515.50
2019-01-16T15:17:06.925Z,98515.89
2019-01-16T15:19:54.214Z,98504.92
2019-01-16T15:22:25.192Z,98503.98
2019-01-16T15:25:09.274Z,98503.67
2019-01-16T15:27:36.714Z,98501.34
2019-01-16T15:30:04.181Z,98497.44
2019-01-16T15:32:32.546Z,98495.05
2019-01-16T15:35:15.660Z,98498.33
2019-01-16T15:37:49.318Z,98495.09
2019-01-16T15:40:21.666Z,98490.00
2019-01-16T15:42:52.030Z,98488.56
2019-01-16T15:45:19.480Z,98488.50
2019-01-16T15:47:46.929Z,98487.74
2019-01-16T15:50:14.372Z,98480.72
2019-01-16T15:52:56.746Z,98472.09
2019-01-16T15:55:40.837Z,98468.66
2019-01-16T15:58:23.192Z,98462.80
2019-01-16T16:01:01.182Z,98457.39
2019-01-16T16:03:44.197Z,98449.66
2019-01-16T16:06:15.165Z,98442.36
2019-01-16T16:08:44.583Z,98440.07
2019-01-16T16:11:15.370Z,98433.48
2019-01-16T16:13:46.226Z,98435.42
2019-01-16T16:16:13.819Z,98427.44
2019-01-16T16:19:01.056Z,98414.62
2019-01-16T16:21:33.322Z,98410.92
2019-01-16T16:24:00.767Z,98400.05
2019-01-16T16:26:28.607Z,98399.63
2019-01-16T16:29:01.730Z,98402.22
2019-01-16T16:31:30.999Z,98396.95
2019-01-16T16:33:59.667Z,98384.48
2019-01-16T16:36:33.510Z,98378.20
2019-01-16T16:39:15.845Z,98376.49
2019-01-16T16:41:45.798Z,98382.27
2019-01-16T16:44:13.366Z,98368.62
2019-01-16T16:46:58.456Z,98373.61
2019-01-16T16:49:26.433Z,98356.89
2019-01-16T16:52:07.645Z,98365.09
2019-01-16T16:54:42.148Z,98361.17
2019-01-16T16:57:10.011Z,98369.09
2019-01-16T16:59:54.267Z,98374.64
2019-01-16T17:02:38.625Z,98365.06
2019-01-16T17:05:06.144Z,98372.24
2019-01-16T17:07:33.617Z,98367.77
2019-01-16T17:10:01.061Z,98371.51
2019-01-16T17:12:34.245Z,98359.68
2019-01-16T17:15:07.493Z,98362.21
2019-01-16T17:17:46.578Z,98361.41
2019-01-16T17:20:29.872Z,98352.52
2019-01-16T17:23:13.013Z,98350.73
2019-01-16T17:25:50.411Z,98346.43
2019-01-16T17:28:18.897Z,98339.77
2019-01-16T17:30:51.991Z,98352.77
2019-01-16T17:33:22.005Z,98340.53
2019-01-16T17:35:55.187Z,98346.50
2019-01-16T17:38:26.393Z,98330.86
2019-01-16T17:41:13.594Z,98322.15
2019-01-16T17:43:42.664Z,98330.11
2019-01-16T17:46:28.926Z,98312.16
2019-01-16T17:48:58.272Z,98311.20
2019-01-16T17:51:31.365Z,98319.12
2019-01-16T17:54:05.359Z,98314.72
2019-01-16T17:56:38.655Z,98303.80
2019-01-16T17:59:25.095Z,98314.89
2019-01-16T18:01:55.117Z,98313.47
2019-01-16T18:04:28.983Z,98310.20
2019-01-16T18:07:12.318Z,98308.17
2019-01-16T18:09:40.689Z,98311.00
2019-01-16T18:12:23.784Z,98305.54
2019-01-16T18:14:52.174Z,98313.71
2019-01-16T18:17:19.602Z,98304.67
2019-01-16T18:19:59.786Z,98307.31
2019-01-16T18:22:45.237Z,98305.73
2019-01-16T18:25:14.437Z,98299.43
2019-01-16T18:27:43.691Z,98293.67
2019-01-16T18:30:16.935Z,98287.02
2019-01-16T18:32:45.267Z,98288.42
2019-01-16T18:35:14.239Z,98281.14
2019-01-16T18:37:45.121Z,98275.69
2019-01-16T18:40:15.127Z,98284.80
2019-01-16T18:42:48.244Z,98283.48
2019-01-16T18:45:27.436Z,98284.92
2019-01-16T18:48:11.586Z,98282.55
2019-01-16T18:50:40.512Z,98279.30
2019-01-16T18:53:13.447Z,98286.16
2019-01-16T18:55:40.906Z,98277.33
2019-01-16T18:58:26.215Z,98280.64
2019-01-16T19:01:12.470Z,98282.50
2019-01-16T19:03:45.384Z,98291.42
2019-01-16T19:06:15.917Z,98290.22
2019-01-16T19:08:45.343Z,98276.09
2019-01-16T19:11:18.634Z,98261.52
2019-01-16T19:13:46.482Z,98274.66
2019-01-16T19:16:17.672Z,98274.59
2019-01-16T19:18:50.633Z,98273.09
2019-01-16T19:21:25.300Z,98281.24
2019-01-16T19:24:04.531Z,98269.84
2019-01-16T19:26:34.511Z,98283.18
2019-01-16T19:29:03.919Z,98264.77
2019-01-16T19:31:41.268Z,98261.98
2019-01-16T19:34:12.193Z,98260.61
2019-01-16T19:36:45.372Z,98263.31
2019-01-16T19:39:17.383Z,98260.49
2019-01-16T19:41:51.091Z,98259.82
2019-01-16T19:44:35.296Z,98244.16
2019-01-16T19:47:03.447Z,98243.23
2019-01-16T19:49:30.916Z,98252.13
2019-01-16T19:51:58.379Z,98237.94
2019-01-16T19:54:30.287Z,98226.42
2019-01-16T19:56:58.366Z,98242.91
2019-01-16T19:59:30.414Z,98238.08
2019-01-16T20:02:02.878Z,98233.09
2019-01-16T20:04:48.054Z,98215.61
2019-01-16T20:07:21.138Z,98229.89
2019-01-16T20:09:48.653Z,98235.97
2019-01-16T20:12:33.701Z,98218.50
2019-01-16T20:15:06.856Z,98216.72
2019-01-16T20:17:34.291Z,98216.39
2019-01-16T20:20:06.277Z,98207.67
2019-01-16T20:22:49.560Z,98216.29
2019-01-16T20:25:25.468Z,98199.66
2019-01-16T20:28:07.791Z,98190.60
2019-01-16T20:30:35.250Z,98195.42
2019-01-16T20:33:18.401Z,98193.85
2019-01-16T20:35:50.726Z,98191.80
2019-01-16T20:38:35.825Z,98190.12
2019-01-16T20:41:05.331Z,98186.37
2019-01-16T20:43:42.734Z,98184.36
2019-01-16T20:46:26.951Z,98161.43
2019-01-16T20:49:09.388Z,98170.63
2019-01-16T20:51:38.708Z,98172.66
2019-01-16T20:54:07.922Z,98174.79
2019-01-16T20:56:36.266Z,98168.39
2019-01-16T20:59:05.327Z,98171.11
2019-01-16T21:01:35.855Z,98167.06
2019-01-16T21:04:05.682Z,98167.12
2019-01-16T21:06:54.393Z,98167.75
2019-01-16T21:09:24.681Z,98164.67
2019-01-16T21:11:53.973Z,98172.77
2019-01-16T21:14:41.235Z,98164.32
2019-01-16T21:17:14.961Z,98147.99
2019-01-16T21:19:59.941Z,98149.75
2019-01-16T21:22:33.527Z,98148.59
2019-01-16T21:25:03.016Z,98156.59
2019-01-16T21:27:48.975Z,98150.88
2019-01-16T21:30:33.192Z,98155.28
2019-01-16T21:33:21.558Z,98148.81
2019-01-16T21:35:49.401Z,98144.22
2019-01-16T21:38:22.558Z,98141.48
2019-01-16T21:40:55.625Z,98140.34
2019-01-16T21:43:28.555Z,98135.17
2019-01-16T21:45:55.998Z,98126.20
2019-01-16T21:48:23.442Z,98124.39
2019-01-16T21:50:53.886Z,98128.87
2019-01-16T21:53:30.331Z,98124.80
2019-01-16T21:56:13.820Z,98122.37
2019-01-16T21:58:47.193Z,98110.70
2019-01-16T22:01:16.048Z,98124.02
2019-01-16T22:03:50.051Z,98112.59
2019-01-16T22:06:17.513Z,98109.18
2019-01-16T22:08:51.393Z,98115.18
2019-01-16T22:11:34.514Z,98103.67
2019-01-16T22:14:07.045Z,98093.69
2019-01-16T22:16:36.233Z,98099.80
2019-01-16T22:19:06.502Z,98101.80
2019-01-16T22:21:34.934Z,98092.46
2019-01-16T22:24:03.300Z,98097.73
2019-01-16T22:26:43.536Z,98101.97
2019-01-16T22:29:16.632Z,98100.39
2019-01-16T22:31:54.891Z,98093.30
2019-01-16T22:34:28.223Z,98093.39
2019-01-16T22:37:07.593Z,98104.32
2019-01-16T22:39:41.293Z,98114.98
2019-01-16T22:42:23.918Z,98105.55
2019-01-16T22:44:57.111Z,98099.86
2019-01-16T22:47:27.108Z,98108.50
2019-01-16T22:50:00.169Z,98103.59
2019-01-16T22:52:31.112Z,98098.22
2019-01-16T22:55:04.259Z,98090.81
2019-01-16T22:57:32.494Z,98089.75
2019-01-16T23:00:04.275Z,98080.34
2019-01-16T23:02:49.603Z,98082.74
2019-01-16T23:05:32.990Z,98077.64
2019-01-16T23:08:01.191Z,98077.28
2019-01-16T23:10:29.720Z,98077.43
2019-01-16T23:13:09.402Z,98075.08
2019-01-16T23:15:53.622Z,98082.66
2019-01-16T23:18:35.992Z,98083.80
2019-01-16T23:21:13.540Z,98081.61
2019-01-16T23:23:54.786Z,98071.71
2019-01-16T23:26:25.746Z,98068.95
2019-01-16T23:29:09.023Z,98067.22
2019-01-16T23:31:42.060Z,98069.85
2019-01-16T23:34:19.426Z,98064.28
2019-01-16T23:36:52.343Z,98068.19
2019-01-16T23:39:19.873Z,98065.41
2019-01-16T23:42:03.000Z,98059.00
2019-01-16T23:44:31.815Z,98063.54
2019-01-16T23:46:59.748Z,98075.46
2019-01-16T23:49:42.090Z,98074.16
2019-01-16T23:52:24.416Z,98073.28
2019-01-16T23:54:54.395Z,98056.18
2019-01-16T23:57:21.820Z,98065.81
